You are listening to:
KLOU Del/Gnd/Twr - Louisville, Kentucky, United States

KLOU 231453Z 21016G22KT 10SM SCT080 27/23 A2984 RMK AO2 SLP097 60003 T02670228 58007

If stream doesn't start automatically press the play button
If stream stops then reload player then press play